createdAt,value
2023-02-26T00:00:24.802Z,9.67
2023-02-26T00:03:27.416Z,10.67
2023-02-26T00:06:32.348Z,10.47
2023-02-26T00:09:34.838Z,10.50
2023-02-26T00:12:37.464Z,8.97
2023-02-26T00:15:40.258Z,9.00
2023-02-26T00:18:44.776Z,9.13
2023-02-26T00:21:47.915Z,9.35
2023-02-26T00:24:50.176Z,11.23
2023-02-26T00:27:52.715Z,8.53
2023-02-26T00:30:56.459Z,10.13
2023-02-26T00:34:00.632Z,11.07
2023-02-26T00:37:40.324Z,9.38
2023-02-26T00:40:48.789Z,10.07
2023-02-26T00:43:52.019Z,10.00
2023-02-26T00:47:13.950Z,10.40
2023-02-26T00:50:25.174Z,10.33
2023-02-26T00:53:52.530Z,12.17
2023-02-26T00:56:55.890Z,10.17
2023-02-26T00:59:58.111Z,11.70
2023-02-26T01:03:00.533Z,10.87
2023-02-26T01:06:03.000Z,9.67
2023-02-26T01:09:29.973Z,10.63
2023-02-26T01:12:32.404Z,11.53
2023-02-26T01:15:35.632Z,11.53
2023-02-26T01:19:13.765Z,9.17
2023-02-26T01:22:38.653Z,11.93
2023-02-26T01:26:00.970Z,11.13
2023-02-26T01:29:03.442Z,11.83
2023-02-26T01:32:30.843Z,11.17
2023-02-26T01:35:50.081Z,12.13
2023-02-26T01:39:02.981Z,12.43
2023-02-26T01:42:27.562Z,9.90
2023-02-26T01:45:36.844Z,11.23
2023-02-26T01:48:52.199Z,9.97
2023-02-26T01:51:57.861Z,9.87
2023-02-26T01:55:01.784Z,10.90
2023-02-26T01:58:04.452Z,11.02
2023-02-26T02:01:07.940Z,9.20
2023-02-26T02:04:16.235Z,9.70
2023-02-26T02:07:22.182Z,8.93
2023-02-26T02:10:24.356Z,8.63
2023-02-26T02:13:49.630Z,8.63
2023-02-26T02:17:10.672Z,10.27
2023-02-26T02:20:26.975Z,7.97
2023-02-26T02:23:47.627Z,7.40
2023-02-26T02:26:59.774Z,7.57
2023-02-26T02:30:29.856Z,7.10
2023-02-26T02:33:39.388Z,6.70
2023-02-26T02:36:51.504Z,6.80
2023-02-26T02:39:59.922Z,7.00
2023-02-26T02:43:07.760Z,6.63
2023-02-26T02:46:15.951Z,7.30
2023-02-26T02:49:48.619Z,6.63
2023-02-26T02:53:05.873Z,6.40
2023-02-26T02:56:11.737Z,8.30
2023-02-26T02:59:20.795Z,8.10
2023-02-26T03:02:43.967Z,6.10
2023-02-26T03:05:48.686Z,7.77
2023-02-26T03:08:52.745Z,7.03
2023-02-26T03:11:55.956Z,6.95
2023-02-26T03:14:58.750Z,7.47
2023-02-26T03:18:43.111Z,5.87
2023-02-26T03:21:53.982Z,6.17
2023-02-26T03:25:07.806Z,6.73
2023-02-26T03:28:43.688Z,6.82
2023-02-26T03:32:06.154Z,6.70
2023-02-26T03:35:10.261Z,7.13
2023-02-26T03:38:25.057Z,6.40
2023-02-26T03:41:36.431Z,6.72
2023-02-26T03:44:59.560Z,8.40
2023-02-26T03:48:09.393Z,7.60
2023-02-26T03:51:14.846Z,5.37
2023-02-26T03:54:26.348Z,6.20
2023-02-26T03:57:31.195Z,5.57
2023-02-26T04:00:35.364Z,6.00
2023-02-26T04:03:49.444Z,5.50
2023-02-26T04:06:58.158Z,5.57
2023-02-26T04:10:00.428Z,5.97
2023-02-26T04:13:07.976Z,5.93
2023-02-26T04:16:10.176Z,5.37
2023-02-26T04:19:12.433Z,5.70
2023-02-26T04:22:16.339Z,6.23
2023-02-26T04:25:18.725Z,4.33
2023-02-26T04:28:20.810Z,4.70
2023-02-26T04:31:23.116Z,5.73
2023-02-26T04:34:25.460Z,5.17
2023-02-26T04:37:27.802Z,4.87
2023-02-26T04:40:30.090Z,5.27
2023-02-26T04:43:34.143Z,4.73
2023-02-26T04:46:36.353Z,4.30
2023-02-26T04:49:38.948Z,5.97
2023-02-26T04:52:41.159Z,4.93
2023-02-26T04:55:43.812Z,5.87
2023-02-26T04:58:46.043Z,3.93
2023-02-26T05:01:48.318Z,6.40
2023-02-26T05:04:50.694Z,5.30
2023-02-26T05:07:56.097Z,5.40
2023-02-26T05:10:58.417Z,6.63
2023-02-26T05:14:00.651Z,9.50
2023-02-26T05:17:02.865Z,5.03
2023-02-26T05:20:06.524Z,6.90
2023-02-26T05:23:08.661Z,8.00
2023-02-26T05:26:11.916Z,5.90
2023-02-26T05:29:14.428Z,7.40
2023-02-26T05:32:17.091Z,5.47
2023-02-26T05:35:19.621Z,5.73
2023-02-26T05:38:21.809Z,6.60
2023-02-26T05:41:24.183Z,6.13
2023-02-26T05:44:26.556Z,6.60
2023-02-26T05:47:29.981Z,7.60
2023-02-26T05:50:32.236Z,6.27
2023-02-26T05:53:35.365Z,6.93
2023-02-26T05:56:37.696Z,7.83
2023-02-26T05:59:39.940Z,8.17
2023-02-26T06:02:42.607Z,8.93
2023-02-26T06:05:44.914Z,10.30
2023-02-26T06:08:47.504Z,9.17
2023-02-26T06:11:49.722Z,9.20
2023-02-26T06:14:51.833Z,10.03
2023-02-26T06:17:54.216Z,9.80
2023-02-26T06:20:56.401Z,8.23
2023-02-26T06:23:59.752Z,8.23
2023-02-26T06:27:02.029Z,9.10
2023-02-26T06:30:05.295Z,10.67
2023-02-26T06:33:07.522Z,7.90
2023-02-26T06:36:09.989Z,8.97
2023-02-26T06:39:15.302Z,9.90
2023-02-26T06:42:19.979Z,8.03
2023-02-26T06:48:27.689Z,9.93
2023-02-26T06:51:31.176Z,8.07
2023-02-26T06:54:33.774Z,10.00
2023-02-26T06:57:36.574Z,7.67
2023-02-26T07:00:40.586Z,8.03
2023-02-26T07:06:46.212Z,9.77
2023-02-26T07:09:48.503Z,11.17
2023-02-26T07:12:50.835Z,9.57
2023-02-26T07:15:53.032Z,10.17
2023-02-26T07:18:55.345Z,11.93
2023-02-26T07:21:57.664Z,14.57
2023-02-26T07:25:00.581Z,14.67
2023-02-26T07:28:02.786Z,15.73
2023-02-26T07:31:05.608Z,16.07
2023-02-26T07:34:07.844Z,17.07
2023-02-26T07:37:10.007Z,17.57
2023-02-26T07:40:13.832Z,19.27
2023-02-26T07:43:16.303Z,21.37
2023-02-26T07:46:18.581Z,23.30
2023-02-26T07:49:20.908Z,25.63
2023-02-26T07:52:23.537Z,22.00
2023-02-26T07:55:25.741Z,24.47
2023-02-26T07:58:28.410Z,23.67
2023-02-26T08:01:30.531Z,21.40
2023-02-26T08:04:33.470Z,47.13
2023-02-26T08:07:35.722Z,32.17
2023-02-26T08:10:41.902Z,36.77
2023-02-26T08:13:44.263Z,33.23
2023-02-26T08:16:46.600Z,33.83
2023-02-26T08:19:48.953Z,33.37
2023-02-26T08:22:51.695Z,31.50
2023-02-26T08:26:05.514Z,28.07
2023-02-26T08:29:08.259Z,31.70
2023-02-26T08:32:10.585Z,38.20
2023-02-26T08:35:13.064Z,34.37
2023-02-26T08:38:16.220Z,27.43
2023-02-26T08:41:21.201Z,26.53
2023-02-26T08:44:23.676Z,27.00
2023-02-26T08:47:29.004Z,26.27
2023-02-26T08:50:32.828Z,27.13
2023-02-26T08:53:35.036Z,25.33
2023-02-26T08:56:38.674Z,24.53
2023-02-26T08:59:40.902Z,24.23
2023-02-26T09:02:43.439Z,20.93
2023-02-26T09:05:47.972Z,26.93
2023-02-26T09:08:50.435Z,21.30
2023-02-26T09:11:53.077Z,20.95
2023-02-26T09:14:55.267Z,19.23
2023-02-26T09:17:58.064Z,18.08
2023-02-26T09:21:00.244Z,17.17
2023-02-26T09:24:02.521Z,17.17
2023-02-26T09:27:04.844Z,15.68
2023-02-26T09:30:07.999Z,14.40
2023-02-26T09:33:10.170Z,9.20
2023-02-26T09:36:12.480Z,8.38
2023-02-26T09:39:14.672Z,4.85
2023-02-26T09:42:26.711Z,4.47
2023-02-26T09:45:36.647Z,4.82
2023-02-26T09:48:40.648Z,4.35
2023-02-26T09:51:44.941Z,4.90
2023-02-26T09:54:49.546Z,4.75
2023-02-26T09:57:54.676Z,3.35
2023-02-26T10:01:16.330Z,4.95
2023-02-26T10:04:57.439Z,4.65
2023-02-26T10:08:06.028Z,5.68
2023-02-26T10:11:20.080Z,5.13
2023-02-26T10:17:51.499Z,4.80
2023-02-26T10:21:33.053Z,3.75
2023-02-26T10:24:43.411Z,2.83
2023-02-26T10:28:10.987Z,1.52
2023-02-26T10:31:40.455Z,2.15
2023-02-26T10:34:53.017Z,3.25
2023-02-26T10:38:03.097Z,10.15
2023-02-26T10:41:16.436Z,11.68
2023-02-26T10:44:41.651Z,10.88
2023-02-26T10:47:46.892Z,12.05
2023-02-26T10:50:53.972Z,11.50
2023-02-26T10:54:05.424Z,11.45
2023-02-26T10:57:19.301Z,12.35
2023-02-26T11:00:22.886Z,11.27
2023-02-26T11:03:39.183Z,13.38
2023-02-26T11:07:11.633Z,11.20
2023-02-26T11:10:21.482Z,10.77
2023-02-26T11:13:29.684Z,10.18
2023-02-26T11:16:32.572Z,10.40
2023-02-26T11:19:41.686Z,11.13
2023-02-26T11:22:52.707Z,12.10
2023-02-26T11:26:07.058Z,12.60
2023-02-26T11:29:16.050Z,11.15
2023-02-26T11:32:24.152Z,11.57
2023-02-26T11:35:27.404Z,13.40
2023-02-26T11:38:38.159Z,12.13
2023-02-26T11:41:41.033Z,11.15
2023-02-26T11:44:48.414Z,10.27
2023-02-26T11:48:02.489Z,12.40
2023-02-26T11:51:06.958Z,12.40
2023-02-26T11:54:24.372Z,15.98
2023-02-26T11:57:29.587Z,15.68
2023-02-26T12:00:38.564Z,9.98
2023-02-26T12:03:46.369Z,11.95
2023-02-26T12:06:52.993Z,12.40
2023-02-26T12:09:55.356Z,11.35
2023-02-26T12:13:20.995Z,11.32
2023-02-26T12:16:34.943Z,12.17
2023-02-26T12:20:02.698Z,10.83
2023-02-26T12:23:16.826Z,8.50
2023-02-26T12:26:35.751Z,7.25
2023-02-26T12:30:10.144Z,9.65
2023-02-26T12:33:30.386Z,7.25
2023-02-26T12:36:47.589Z,5.53
2023-02-26T12:40:38.385Z,8.68
2023-02-26T12:43:43.330Z,7.70
2023-02-26T12:47:17.715Z,9.03
2023-02-26T12:50:40.934Z,8.10
2023-02-26T12:54:10.774Z,9.93
2023-02-26T12:57:21.710Z,7.17
2023-02-26T13:00:40.837Z,7.60
2023-02-26T13:04:10.936Z,7.68
2023-02-26T13:07:40.413Z,5.93
2023-02-26T13:11:11.082Z,4.80
2023-02-26T13:14:25.265Z,5.57
2023-02-26T13:18:02.349Z,5.18
2023-02-26T13:21:14.186Z,6.00
2023-02-26T13:24:22.715Z,5.80
2023-02-26T13:27:31.370Z,6.20
2023-02-26T13:30:40.848Z,4.67
2023-02-26T13:33:44.745Z,5.73
2023-02-26T13:36:48.188Z,4.40
2023-02-26T13:40:17.767Z,4.47
2023-02-26T13:43:57.868Z,4.23
2023-02-26T13:47:42.851Z,4.20
2023-02-26T13:50:50.933Z,3.97
2023-02-26T13:53:57.886Z,5.37
2023-02-26T13:57:23.134Z,6.00
2023-02-26T14:00:36.424Z,5.00
2023-02-26T14:03:53.035Z,5.40
2023-02-26T14:06:59.671Z,5.07
2023-02-26T14:10:15.232Z,5.73
2023-02-26T14:13:23.222Z,5.70
2023-02-26T14:16:29.330Z,5.60
2023-02-26T14:19:39.405Z,5.72
2023-02-26T14:22:43.697Z,8.93
2023-02-26T14:25:52.955Z,11.13
2023-02-26T14:29:33.876Z,6.10
2023-02-26T14:32:54.651Z,5.50
2023-02-26T14:35:58.582Z,5.60
2023-02-26T14:39:05.151Z,6.22
2023-02-26T14:42:17.393Z,5.70
2023-02-26T14:45:25.638Z,6.27
2023-02-26T14:48:32.643Z,5.37
2023-02-26T14:52:04.121Z,5.63
2023-02-26T14:55:28.890Z,4.60
2023-02-26T14:58:45.479Z,6.28
2023-02-26T15:01:50.540Z,5.13
2023-02-26T15:05:12.208Z,6.05
2023-02-26T15:08:36.122Z,6.45
2023-02-26T15:11:56.707Z,4.65
2023-02-26T15:15:28.184Z,7.20
2023-02-26T15:18:51.318Z,6.03
2023-02-26T15:22:11.875Z,5.35
2023-02-26T15:25:38.926Z,4.97
2023-02-26T15:28:42.298Z,4.85
2023-02-26T15:31:53.352Z,5.30
2023-02-26T15:35:16.427Z,4.97
2023-02-26T15:38:19.362Z,4.18
2023-02-26T15:41:23.052Z,3.78
2023-02-26T15:44:30.541Z,5.22
2023-02-26T15:47:33.047Z,4.30
2023-02-26T15:50:43.638Z,4.95
2023-02-26T15:53:51.676Z,4.60
2023-02-26T15:56:53.940Z,4.45
2023-02-26T16:00:07.283Z,4.88
2023-02-26T16:03:11.042Z,3.85
2023-02-26T16:06:17.479Z,6.30
2023-02-26T16:09:38.807Z,4.43
2023-02-26T16:12:43.930Z,4.72
2023-02-26T16:15:48.288Z,5.22
2023-02-26T16:18:52.137Z,6.00
2023-02-26T16:21:56.412Z,5.80
2023-02-26T16:25:15.981Z,5.63
2023-02-26T16:28:45.772Z,5.43
2023-02-26T16:31:54.546Z,3.20
2023-02-26T16:35:01.135Z,2.15
2023-02-26T16:38:21.139Z,1.30
2023-02-26T16:41:26.430Z,1.13
2023-02-26T16:44:31.601Z,1.30
2023-02-26T16:47:34.024Z,1.10
2023-02-26T16:50:37.550Z,1.10
2023-02-26T16:53:49.496Z,1.03
2023-02-26T16:56:58.650Z,0.82
2023-02-26T17:00:09.684Z,0.80
2023-02-26T17:03:21.029Z,1.37
2023-02-26T17:06:23.301Z,1.03
2023-02-26T17:09:34.860Z,1.00
2023-02-26T17:12:42.712Z,0.63
2023-02-26T17:15:47.226Z,0.50
2023-02-26T17:18:49.505Z,1.15
2023-02-26T17:21:55.070Z,0.70
2023-02-26T17:24:57.518Z,1.00
2023-02-26T17:27:59.772Z,0.77
2023-02-26T17:31:04.035Z,0.93
2023-02-26T17:34:10.540Z,0.98
2023-02-26T17:37:15.489Z,0.60
2023-02-26T17:40:27.048Z,0.70
2023-02-26T17:43:29.650Z,0.70
2023-02-26T17:46:32.397Z,0.93
2023-02-26T17:49:34.560Z,1.20
2023-02-26T17:52:36.638Z,0.83
2023-02-26T17:55:39.923Z,1.97
2023-02-26T17:58:45.733Z,1.37
2023-02-26T18:01:47.853Z,1.03
2023-02-26T18:04:54.790Z,0.80
2023-02-26T18:08:02.105Z,0.60
2023-02-26T18:11:04.940Z,1.77
2023-02-26T18:14:07.091Z,0.80
2023-02-26T18:17:33.598Z,1.67
2023-02-26T18:20:35.778Z,0.93
2023-02-26T18:23:38.078Z,1.00
2023-02-26T18:26:40.270Z,1.00
2023-02-26T18:29:42.796Z,1.40
2023-02-26T18:32:45.565Z,0.87
2023-02-26T18:35:55.168Z,1.10
2023-02-26T18:38:59.625Z,1.17
2023-02-26T18:42:03.670Z,1.70
2023-02-26T18:45:06.720Z,2.05
2023-02-26T18:48:12.047Z,2.10
2023-02-26T18:51:15.148Z,1.87
2023-02-26T18:54:17.559Z,1.93
2023-02-26T18:57:19.763Z,1.63
2023-02-26T19:00:22.273Z,2.53
2023-02-26T19:03:24.658Z,1.67
2023-02-26T19:06:26.876Z,1.57
2023-02-26T19:09:29.125Z,1.70
2023-02-26T19:12:32.794Z,1.90
2023-02-26T19:15:34.950Z,2.80
2023-02-26T19:18:37.111Z,2.50
2023-02-26T19:21:40.411Z,2.23
2023-02-26T19:24:43.370Z,2.43
2023-02-26T19:27:45.665Z,3.20
2023-02-26T19:30:47.827Z,2.60
2023-02-26T19:33:50.016Z,2.57
2023-02-26T19:36:53.595Z,2.67
2023-02-26T19:39:55.774Z,2.93
2023-02-26T19:42:58.449Z,2.90
2023-02-26T19:46:00.659Z,2.40
2023-02-26T19:49:02.878Z,2.47
2023-02-26T19:52:06.103Z,5.50
2023-02-26T19:55:09.336Z,3.40
2023-02-26T19:58:13.420Z,3.50
2023-02-26T20:01:16.489Z,3.08
2023-02-26T20:04:19.196Z,3.10
2023-02-26T20:07:21.517Z,3.23
2023-02-26T20:10:24.598Z,2.53
2023-02-26T20:13:29.956Z,2.83
2023-02-26T20:16:32.173Z,3.40
2023-02-26T20:19:37.349Z,2.83
2023-02-26T20:22:39.582Z,3.10
2023-02-26T20:25:43.669Z,2.20
2023-02-26T20:28:46.133Z,2.80
2023-02-26T20:31:50.244Z,2.47
2023-02-26T20:34:54.004Z,1.67
2023-02-26T20:37:56.170Z,2.17
2023-02-26T20:40:58.601Z,2.50
2023-02-26T20:44:01.185Z,1.60
2023-02-26T20:47:06.160Z,1.80
2023-02-26T20:50:09.820Z,2.43
2023-02-26T20:53:12.039Z,2.53
2023-02-26T20:56:14.545Z,1.90
2023-02-26T20:59:18.403Z,2.43
2023-02-26T21:02:21.261Z,2.27
2023-02-26T21:05:23.820Z,1.73
2023-02-26T21:08:26.049Z,3.73
2023-02-26T21:11:31.319Z,1.97
2023-02-26T21:14:33.580Z,1.97
2023-02-26T21:17:37.439Z,1.97
2023-02-26T21:20:39.532Z,2.13
2023-02-26T21:23:41.754Z,2.20
2023-02-26T21:26:43.945Z,2.80
2023-02-26T21:29:46.152Z,2.33
2023-02-26T21:32:48.264Z,2.83
2023-02-26T21:35:51.800Z,2.70
2023-02-26T21:38:53.990Z,2.97
2023-02-26T21:41:56.651Z,3.13
2023-02-26T21:44:59.112Z,2.70
2023-02-26T21:48:01.431Z,10.17
2023-02-26T21:51:03.992Z,4.17
2023-02-26T21:54:06.266Z,2.67
2023-02-26T21:57:08.950Z,3.20
2023-02-26T22:00:11.860Z,3.30
2023-02-26T22:03:14.168Z,2.87
2023-02-26T22:06:16.370Z,2.40
2023-02-26T22:09:19.378Z,4.30
2023-02-26T22:12:21.785Z,2.87
2023-02-26T22:15:24.467Z,2.37
2023-02-26T22:18:26.715Z,1.80
2023-02-26T22:21:29.094Z,2.37
2023-02-26T22:24:31.477Z,2.10
2023-02-26T22:27:34.155Z,2.67
2023-02-26T22:30:36.300Z,2.60
2023-02-26T22:33:38.844Z,2.20
2023-02-26T22:36:41.044Z,1.90
2023-02-26T22:39:43.320Z,2.97
2023-02-26T22:42:45.592Z,2.40
2023-02-26T22:45:50.549Z,3.10
2023-02-26T22:51:54.703Z,2.50
2023-02-26T22:54:56.932Z,2.83
2023-02-26T22:57:59.139Z,2.37
2023-02-26T23:01:03.195Z,2.57
2023-02-26T23:04:05.722Z,2.80
2023-02-26T23:07:08.063Z,3.03
2023-02-26T23:10:13.653Z,4.37
2023-02-26T23:13:18.593Z,3.23
2023-02-26T23:16:20.797Z,2.53
2023-02-26T23:19:22.909Z,2.93
2023-02-26T23:22:25.120Z,3.43
2023-02-26T23:25:27.544Z,3.53
2023-02-26T23:28:29.958Z,3.20
2023-02-26T23:31:32.824Z,2.73
2023-02-26T23:34:36.317Z,2.50
2023-02-26T23:37:38.570Z,3.17
2023-02-26T23:40:40.946Z,3.23
2023-02-26T23:43:43.128Z,3.07
2023-02-26T23:46:49.723Z,3.83
2023-02-26T23:49:53.134Z,4.00
2023-02-26T23:53:01.796Z,3.73
2023-02-26T23:56:04.322Z,2.90
2023-02-26T23:59:06.519Z,3.53
